Takeley, United Kingdom
Current Conditions -  °F | °C
As of 1:50 AM on Tuesday 25 Nov 2014 (Local Time) from EGSS Reporting Station
Haze Haze  
Wind Chill: 30°   Ceiling: Unl
Heat Index: 34°   Visibility: 1.1mi
Dew Point: 34°   Wind: 5mph
Humidity: 100%   Direction: 350°N
Pressure: 30.3"   Gusts: NA
Location:  51.87°N, 0.27°E
Report Text: EGSS 250150Z 35004KT 1900 BR NSC 01/01 Q1026
Loading
Personal Weather Stations






























Interactive Weather Map New forecast layout! Learn more

10-Day Weather Forecast

Advertisements
Track Severe Weather on mobile